Time;durP1;ratioP1;P1;durP2;ratioP2;P2;SDS_P1;SDS_P2;PMS_P1;PMS_P2;Temp;Humidity;BMP_temperature;BMP_pressure;BME280_temperature;BME280_humidity;BME280_pressure;Samples;Min_cycle;Max_cycle;Signal;HPM_P1;HPM_P2
2023/07/16 00:01:58;;;;;;;0.00;0.00;;;;;;;12.79;100.00;99230.97;5027707;28;20111;-75
2023/07/16 00:04:24;;;;;;;0.00;0.00;;;;;;;12.97;100.00;99256.59;5045274;28;20025;-76
2023/07/16 00:06:49;;;;;;;0.00;0.00;;;;;;;13.07;100.00;99283.81;5017796;28;20030;-76
2023/07/16 00:09:15;;;;;;;0.00;0.00;;;;;;;12.99;100.00;99290.03;4994655;28;20029;-73
2023/07/16 00:11:40;;;;;;;0.00;0.00;;;;;;;12.90;100.00;99267.19;4998718;28;20017;-74
2023/07/16 00:14:06;;;;;;;0.03;0.03;;;;;;;12.93;100.00;99278.34;4997284;28;20071;-73
2023/07/16 00:16:31;;;;;;;0.00;0.00;;;;;;;12.96;100.00;99292.59;5025512;28;20127;-74
2023/07/16 00:18:57;;;;;;;0.00;0.00;;;;;;;12.92;100.00;99295.13;5014426;28;20037;-77
2023/07/16 00:21:30;;;;;;;0.00;0.00;;;;;;;12.81;100.00;99285.53;5014409;28;20037;-77
2023/07/16 00:23:55;;;;;;;0.00;0.00;;;;;;;12.75;100.00;99282.88;5025740;28;20040;-76
2023/07/16 00:26:26;;;;;;;0.00;0.00;;;;;;;12.74;100.00;99283.97;5006136;28;20034;-76
2023/07/16 00:29:01;;;;;;;;;;;;;;;;;;;;;
2023/07/16 00:31:29;;;;;;;0.00;0.00;;;;;;;12.83;100.00;99305.22;5036840;28;20049;-77
2023/07/16 00:33:55;;;;;;;0.00;0.00;;;;;;;12.78;100.00;99280.66;5018863;28;20108;-77
2023/07/16 00:36:22;;;;;;;0.00;0.00;;;;;;;12.84;100.00;99298.63;5014193;28;20116;-78
2023/07/16 00:38:50;;;;;;;0.00;0.00;;;;;;;12.87;100.00;99300.75;5008401;28;20033;-78
2023/07/16 00:41:16;;;;;;;0.00;0.00;;;;;;;12.91;100.00;99302.56;5012191;28;20036;-78
2023/07/16 00:43:43;;;;;;;0.00;0.00;;;;;;;12.97;100.00;99295.00;5024470;28;20021;-77
2023/07/16 00:46:11;;;;;;;0.00;0.00;;;;;;;13.14;100.00;99316.31;5015465;28;20029;-77
2023/07/16 00:48:37;;;;;;;0.00;0.00;;;;;;;13.24;100.00;99332.56;5027558;28;20037;-77
2023/07/16 00:51:03;;;;;;;0.00;0.00;;;;;;;13.17;100.00;99310.22;5025126;28;20029;-78
2023/07/16 00:53:30;;;;;;;0.00;0.00;;;;;;;13.27;100.00;99333.84;5009772;28;20022;-78
2023/07/16 00:56:00;;;;;;;0.00;0.00;;;;;;;13.23;100.00;99319.13;5015124;28;20108;-78
2023/07/16 00:58:26;;;;;;;0.00;0.00;;;;;;;13.17;100.00;99314.88;5013709;28;20080;-78
2023/07/16 01:00:52;;;;;;;0.00;0.00;;;;;;;13.24;100.00;99331.72;5008937;28;20033;-75
2023/07/16 01:03:17;;;;;;;0.00;0.00;;;;;;;13.10;100.00;99338.06;5015523;28;20032;-77
2023/07/16 01:06:03;;;;;;;0.00;0.00;;;;;;;12.92;100.00;99333.53;4996122;28;20029;-78
2023/07/16 01:08:38;;;;;;;0.00;0.00;;;;;;;12.97;100.00;99341.66;5017717;28;20060;-76
2023/07/16 01:11:04;;;;;;;0.00;0.00;;;;;;;12.90;100.00;99335.78;5020295;28;20033;-76
2023/07/16 01:13:30;;;;;;;0.00;0.00;;;;;;;12.86;100.00;99321.06;5029568;28;20094;-76
2023/07/16 01:15:56;;;;;;;0.00;0.00;;;;;;;12.90;100.00;99339.34;5020750;28;20029;-77
2023/07/16 01:18:21;;;;;;;0.00;0.00;;;;;;;12.73;100.00;99334.50;5000919;28;20017;-77
2023/07/16 01:20:47;;;;;;;0.00;0.00;;;;;;;12.56;100.00;99335.13;5023383;28;20024;-77
2023/07/16 01:23:37;;;;;;;0.00;0.00;;;;;;;12.48;100.00;99333.06;5012224;28;20391;-78
2023/07/16 01:26:28;;;;;;;0.00;0.00;;;;;;;12.33;100.00;99328.72;5012004;28;20056;-76
2023/07/16 01:29:29;;;;;;;0.00;0.00;;;;;;;12.43;100.00;99357.06;5033100;28;21083;-76
2023/07/16 01:31:58;;;;;;;0.00;0.00;;;;;;;12.18;100.00;99335.31;5035656;28;20076;-77
2023/07/16 01:34:28;;;;;;;0.00;0.00;;;;;;;12.29;100.00;99359.78;5028153;28;20028;-76
2023/07/16 01:37:04;;;;;;;0.00;0.00;;;;;;;12.15;100.00;99346.91;5023232;28;20025;-76
2023/07/16 01:39:31;;;;;;;0.00;0.00;;;;;;;12.05;100.00;99342.41;5017143;28;20029;-77
2023/07/16 01:41:56;;;;;;;0.00;0.00;;;;;;;11.98;100.00;99352.16;5026876;28;20040;-75
2023/07/16 01:44:22;;;;;;;0.00;0.00;;;;;;;11.96;100.00;99351.63;5004384;28;20666;-77
2023/07/16 01:47:06;;;;;;;0.00;0.00;;;;;;;12.11;100.00;99364.25;5027848;28;20038;-77
2023/07/16 01:49:36;;;;;;;0.00;0.00;;;;;;;12.01;100.00;99357.00;5017968;28;20025;-77
2023/07/16 01:52:06;;;;;;;0.00;0.00;;;;;;;11.86;100.00;99347.91;5014955;28;20033;-76
2023/07/16 01:54:31;;;;;;;0.00;0.00;;;;;;;11.88;100.00;99370.38;5009746;28;20380;-75
2023/07/16 01:57:08;;;;;;;0.00;0.00;;;;;;;11.80;100.00;99364.75;5021609;28;20033;-77
2023/07/16 01:59:33;;;;;;;0.00;0.00;;;;;;;11.73;100.00;99361.59;5019524;28;20025;-77
2023/07/16 02:01:58;;;;;;;0.00;0.00;;;;;;;11.87;100.00;99378.84;5003753;28;20025;-77
2023/07/16 02:04:24;;;;;;;0.00;0.00;;;;;;;11.74;100.00;99357.72;5021756;28;20034;-76
2023/07/16 02:06:49;;;;;;;0.00;0.00;;;;;;;11.70;100.00;99358.31;5023915;28;20487;-76
2023/07/16 02:09:15;;;;;;;0.00;0.00;;;;;;;11.80;100.00;99378.47;5015997;28;20079;-77
2023/07/16 02:11:40;;;;;;;0.00;0.00;;;;;;;11.72;100.00;99370.91;5016954;28;20032;-76
2023/07/16 02:14:08;;;;;;;0.00;0.00;;;;;;;11.73;100.00;99375.28;5001763;28;20035;-76
2023/07/16 02:16:33;;;;;;;0.00;0.00;;;;;;;11.68;100.00;99379.72;5005824;28;20026;-76
2023/07/16 02:18:58;;;;;;;0.00;0.00;;;;;;;11.64;100.00;99375.16;5026043;28;20041;-78
2023/07/16 02:21:24;;;;;;;0.00;0.00;;;;;;;11.69;100.00;99386.81;4996572;28;20033;-77
2023/07/16 02:23:57;;;;;;;0.00;0.00;;;;;;;11.64;100.00;99380.63;5040063;28;20032;-77
2023/07/16 02:26:23;;;;;;;0.00;0.00;;;;;;;11.53;100.00;99374.50;5029019;28;20025;-77
2023/07/16 02:28:48;;;;;;;0.00;0.00;;;;;;;11.63;100.00;99396.22;5022686;28;20037;-77
2023/07/16 02:31:14;;;;;;;0.00;0.00;;;;;;;11.62;100.00;99391.88;5016977;28;20383;-77
2023/07/16 02:33:41;;;;;;;0.00;0.00;;;;;;;11.47;100.00;99386.63;5025961;28;20475;-77
2023/07/16 02:36:12;;;;;;;0.00;0.00;;;;;;;11.38;100.00;99372.81;5024969;28;20046;-77
2023/07/16 02:38:40;;;;;;;0.00;0.00;;;;;;;11.34;100.00;99380.78;5022538;28;20418;-76
2023/07/16 02:41:05;;;;;;;0.00;0.00;;;;;;;11.42;100.00;99401.22;5048622;28;20040;-77
2023/07/16 02:43:31;;;;;;;0.00;0.00;;;;;;;11.38;100.00;99399.38;5037765;28;20013;-78
2023/07/16 02:45:56;;;;;;;0.00;0.00;;;;;;;11.28;100.00;99400.31;5044727;28;21673;-78
2023/07/16 02:48:25;;;;;;;0.00;0.00;;;;;;;11.20;100.00;99388.13;5027190;28;20051;-76
2023/07/16 02:50:53;;;;;;;0.00;0.00;;;;;;;11.25;100.00;99390.78;5009810;28;20033;-77
2023/07/16 02:53:18;;;;;;;0.00;0.00;;;;;;;11.27;100.00;99402.25;5038100;28;20029;-77
2023/07/16 02:55:50;;;;;;;0.00;0.00;;;;;;;11.14;100.00;99384.66;5036038;28;20037;-78
2023/07/16 02:58:17;;;;;;;0.00;0.00;;;;;;;11.15;100.00;99396.41;5004139;28;20060;-78
2023/07/16 03:00:43;;;;;;;0.00;0.00;;;;;;;11.07;100.00;99383.38;5020893;28;20029;-78
2023/07/16 03:03:28;;;;;;;;;;;;;;;;;;;;;
2023/07/16 03:05:54;;;;;;;0.00;0.00;;;;;;;11.03;100.00;99379.63;5018792;28;20029;-77
2023/07/16 03:08:19;;;;;;;0.00;0.00;;;;;;;11.04;100.00;99379.31;5039748;28;20117;-76
2023/07/16 03:10:45;;;;;;;0.00;0.00;;;;;;;11.17;100.00;99405.16;5016154;28;20372;-77
2023/07/16 03:13:10;;;;;;;0.00;0.00;;;;;;;11.16;100.00;99401.56;5037990;28;20027;-77
2023/07/16 03:15:36;;;;;;;0.00;0.00;;;;;;;11.29;100.00;99413.72;5047094;28;20375;-77
2023/07/16 03:18:03;;;;;;;0.00;0.00;;;;;;;11.20;100.00;99399.06;5050912;28;20375;-76
2023/07/16 03:20:31;;;;;;;0.00;0.00;;;;;;;11.28;100.00;99400.31;5047495;28;20017;-77
2023/07/16 03:22:57;;;;;;;0.00;0.00;;;;;;;11.34;100.00;99416.38;5044378;28;20116;-76
2023/07/16 03:25:22;;;;;;;0.00;0.00;;;;;;;11.16;100.00;99398.03;5025520;28;20120;-77
2023/07/16 03:27:51;;;;;;;0.00;0.00;;;;;;;11.29;100.00;99424.66;5029912;28;20044;-77
2023/07/16 03:30:19;;;;;;;0.00;0.00;;;;;;;11.23;100.00;99406.69;5004948;28;20033;-77
2023/07/16 03:32:44;;;;;;;0.00;0.00;;;;;;;11.25;100.00;99404.47;5019617;28;20049;-77
2023/07/16 03:35:12;;;;;;;0.00;0.00;;;;;;;11.32;100.00;99421.34;5015461;28;20079;-77
2023/07/16 03:37:38;;;;;;;0.00;0.00;;;;;;;11.33;100.00;99425.72;5029508;28;20060;-76
2023/07/16 03:40:18;;;;;;;0.00;0.00;;;;;;;11.42;100.00;99452.41;5023761;28;20462;-77
2023/07/16 03:42:44;;;;;;;0.00;0.00;;;;;;;11.39;100.00;99444.78;5024288;28;20116;-76
2023/07/16 03:45:10;;;;;;;0.00;0.00;;;;;;;11.41;100.00;99459.00;5021850;28;20108;-76
2023/07/16 03:47:38;;;;;;;0.00;0.00;;;;;;;11.37;100.00;99433.31;5024287;28;20471;-77
2023/07/16 03:50:04;;;;;;;0.00;0.00;;;;;;;11.33;100.00;99439.38;5031214;28;20472;-77
2023/07/16 03:52:29;;;;;;;0.00;0.00;;;;;;;11.33;100.00;99436.66;5024640;28;20037;-75
2023/07/16 03:54:57;;;;;;;0.00;0.00;;;;;;;11.44;100.00;99463.88;5023178;28;20033;-75
2023/07/16 03:57:23;;;;;;;0.00;0.00;;;;;;;11.34;100.00;99460.16;5052961;28;20021;-77
2023/07/16 03:59:48;;;;;;;0.10;0.10;;;;;;;11.30;100.00;99453.66;5033627;28;20443;-77
2023/07/16 04:02:16;;;;;;;0.00;0.00;;;;;;;11.34;100.00;99459.34;5020323;28;20453;-76
2023/07/16 04:04:41;;;;;;;0.00;0.00;;;;;;;11.34;100.00;99471.09;5006468;28;20039;-76
2023/07/16 04:07:07;;;;;;;0.00;0.00;;;;;;;11.32;100.00;99461.59;5007235;28;20108;-76
2023/07/16 04:09:41;;;;;;;0.00;0.00;;;;;;;11.34;100.00;99465.63;5008229;28;20064;-75
2023/07/16 04:12:07;;;;;;;;;;;;;;;11.41;100.00;99502.81;5027834;28;20025;-75
2023/07/16 04:14:32;;;;;;;0.00;0.00;;;;;;;11.34;100.00;99498.47;5027269;28;19959;-75
2023/07/16 04:16:58;;;;;;;0.00;0.00;;;;;;;11.34;100.00;99486.72;5029307;28;20120;-76
2023/07/16 04:19:26;;;;;;;0.00;0.00;;;;;;;11.33;100.00;99485.09;5024282;28;20061;-74
2023/07/16 04:21:51;;;;;;;0.10;0.10;;;;;;;11.32;100.00;99489.75;5016243;28;20033;-75
2023/07/16 04:24:16;;;;;;;0.00;0.00;;;;;;;11.40;100.00;99501.97;5016606;28;20029;-76
2023/07/16 04:26:42;;;;;;;0.00;0.00;;;;;;;11.48;100.00;99508.72;5023543;28;20041;-76
2023/07/16 04:29:07;;;;;;;0.00;0.00;;;;;;;11.48;100.00;99497.78;5023885;28;20116;-76
2023/07/16 04:31:33;;;;;;;0.00;0.00;;;;;;;11.45;100.00;99498.38;5030694;28;20081;-76
2023/07/16 04:33:58;;;;;;;0.00;0.00;;;;;;;11.51;100.00;99491.72;5023693;28;20193;-76
2023/07/16 04:36:26;;;;;;;0.00;0.00;;;;;;;11.49;100.00;99502.97;5006951;28;20032;-76
2023/07/16 04:38:51;;;;;;;0.00;0.00;;;;;;;11.56;100.00;99516.25;5017366;28;20018;-76
2023/07/16 04:41:17;;;;;;;0.00;0.00;;;;;;;11.62;100.00;99514.28;5016696;28;20034;-74
2023/07/16 04:43:52;;;;;;;;;;;;;;;;;;;;;
2023/07/16 04:46:18;;;;;;;0.00;0.00;;;;;;;11.75;100.00;99529.16;5033509;28;20382;-77
2023/07/16 04:48:49;;;;;;;0.00;0.00;;;;;;;11.69;100.00;99517.47;5019801;28;20131;-75
2023/07/16 04:51:14;;;;;;;0.00;0.00;;;;;;;11.79;100.00;99524.72;5005394;28;20056;-76
2023/07/16 04:53:40;;;;;;;0.00;0.00;;;;;;;11.81;100.00;99523.31;5025384;28;20104;-76
2023/07/16 04:56:16;;;;;;;0.00;0.00;;;;;;;11.89;100.00;99541.00;5024060;28;20030;-76
2023/07/16 04:58:44;;;;;;;0.00;0.00;;;;;;;11.87;100.00;99533.09;5022141;28;20029;-75
2023/07/16 05:01:10;;;;;;;0.00;0.00;;;;;;;11.93;100.00;99542.09;5035237;28;20052;-75
2023/07/16 05:03:36;;;;;;;0.00;0.00;;;;;;;11.99;100.00;99546.38;5015974;28;20494;-76
2023/07/16 05:06:02;;;;;;;0.00;0.00;;;;;;;11.94;100.00;99527.25;5029031;28;20021;-75
2023/07/16 05:08:27;;;;;;;0.00;0.00;;;;;;;12.05;100.00;99536.94;5030763;28;20029;-74
2023/07/16 05:10:56;;;;;;;0.00;0.00;;;;;;;12.12;100.00;99554.94;5038133;28;20026;-75
2023/07/16 05:13:22;;;;;;;0.00;0.00;;;;;;;12.14;100.00;99566.44;5020671;28;20450;-75
2023/07/16 05:15:55;;;;;;;0.00;0.00;;;;;;;12.11;100.00;99542.38;5018846;28;20033;-75
2023/07/16 05:18:21;;;;;;;0.00;0.00;;;;;;;12.22;99.57;99561.09;5016171;28;20031;-75
2023/07/16 05:20:49;;;;;;;0.00;0.00;;;;;;;12.11;98.94;99537.69;5020926;28;20056;-74
2023/07/16 05:23:15;;;;;;;0.00;0.00;;;;;;;12.19;98.76;99549.91;5022848;28;20028;-75
2023/07/16 05:25:50;;;;;;;0.00;0.00;;;;;;;12.23;98.06;99556.41;5008781;28;20037;-75
2023/07/16 05:28:26;;;;;;;0.00;0.00;;;;;;;12.26;98.35;99561.31;5034816;28;20029;-75
2023/07/16 05:31:02;;;;;;;0.00;0.00;;;;;;;12.24;97.28;99552.56;5001141;28;20395;-75
2023/07/16 05:33:27;;;;;;;0.00;0.00;;;;;;;12.37;96.60;99578.41;5015669;28;20627;-76
2023/07/16 05:35:55;;;;;;;0.00;0.00;;;;;;;12.40;96.22;99567.66;5031440;28;20021;-76
2023/07/16 05:38:21;;;;;;;0.00;0.00;;;;;;;12.45;95.89;99579.66;5011750;28;20056;-75
2023/07/16 05:40:49;;;;;;;0.00;0.00;;;;;;;12.48;95.63;99579.06;4996318;28;20029;-75
2023/07/16 05:43:15;;;;;;;0.00;0.00;;;;;;;12.57;95.19;99593.69;4996262;28;20033;-75
2023/07/16 05:45:40;;;;;;;0.00;0.00;;;;;;;12.64;94.94;99599.63;5032472;28;20492;-76
2023/07/16 05:48:06;;;;;;;0.00;0.00;;;;;;;12.67;94.38;99607.25;5010797;28;20029;-75
2023/07/16 05:50:32;;;;;;;0.00;0.00;;;;;;;12.72;93.76;99604.44;5020561;28;20460;-76
2023/07/16 05:52:57;;;;;;;0.00;0.00;;;;;;;12.71;93.83;99600.06;5011496;28;20032;-75
2023/07/16 05:55:22;;;;;;;0.00;0.00;;;;;;;12.87;93.30;99611.56;5024376;28;20029;-76
2023/07/16 05:57:48;;;;;;;0.00;0.00;;;;;;;12.79;93.34;99601.31;5022953;28;20021;-76
2023/07/16 06:00:13;;;;;;;0.00;0.00;;;;;;;12.78;92.99;99593.38;5025022;28;20030;-76
2023/07/16 06:02:39;;;;;;;0.00;0.00;;;;;;;12.97;92.57;99618.81;5025030;28;20022;-75
2023/07/16 06:05:05;;;;;;;0.00;0.00;;;;;;;12.93;91.81;99606.81;5015351;28;20024;-74
2023/07/16 06:07:31;;;;;;;0.00;0.00;;;;;;;12.92;91.70;99597.78;5044596;28;20079;-74
2023/07/16 06:10:02;;;;;;;0.00;0.00;;;;;;;13.05;90.97;99623.63;5012376;28;20053;-74
2023/07/16 06:12:31;;;;;;;0.00;0.00;;;;;;;13.04;90.06;99607.44;5013125;28;20029;-74
2023/07/16 06:14:56;;;;;;;0.00;0.00;;;;;;;13.12;90.38;99614.19;5027264;28;20607;-76
2023/07/16 06:17:24;;;;;;;0.00;0.00;;;;;;;13.21;89.60;99634.31;5026717;28;20021;-76
2023/07/16 06:19:51;;;;;;;0.00;0.00;;;;;;;13.29;88.99;99636.38;5033445;28;20021;-75
2023/07/16 06:22:17;;;;;;;0.00;0.00;;;;;;;13.42;87.90;99640.28;5033941;28;20104;-76
2023/07/16 06:24:42;;;;;;;0.00;0.00;;;;;;;13.47;87.44;99647.59;5025988;28;20825;-77
2023/07/16 06:27:08;;;;;;;0.00;0.00;;;;;;;13.62;87.44;99636.28;5009362;28;20482;-76
2023/07/16 06:29:33;;;;;;;0.00;0.00;;;;;;;13.75;86.81;99635.47;5016796;28;20029;-76
2023/07/16 06:32:01;;;;;;;0.00;0.00;;;;;;;13.92;85.71;99653.28;5015560;28;20042;-76
2023/07/16 06:34:28;;;;;;;0.00;0.00;;;;;;;13.99;85.07;99667.44;5031765;28;20013;-75
2023/07/16 06:36:53;;;;;;;0.00;0.00;;;;;;;13.98;84.58;99646.56;5005014;28;20041;-75
2023/07/16 06:39:19;;;;;;;0.00;0.00;;;;;;;14.05;84.96;99662.66;5011249;28;20044;-74
2023/07/16 06:41:45;;;;;;;0.00;0.00;;;;;;;14.03;84.09;99654.69;5012527;28;20126;-75
2023/07/16 06:44:10;;;;;;;0.00;0.00;;;;;;;14.05;83.68;99690.94;5012862;28;20574;-76
2023/07/16 06:46:36;;;;;;;0.00;0.00;;;;;;;14.01;83.90;99684.41;5023429;28;20075;-76
2023/07/16 06:49:01;;;;;;;0.00;0.00;;;;;;;14.05;83.69;99670.88;5017569;28;20148;-75
2023/07/16 06:51:29;;;;;;;0.00;0.00;;;;;;;14.03;83.31;99675.88;5008044;28;20487;-76
2023/07/16 06:53:54;;;;;;;0.00;0.00;;;;;;;14.05;82.54;99677.19;5005444;28;20026;-80
2023/07/16 06:56:20;;;;;;;0.00;0.00;;;;;;;14.05;82.62;99668.94;5016986;28;20384;-75
2023/07/16 06:58:45;;;;;;;0.00;0.00;;;;;;;14.08;82.89;99679.31;5005116;28;20495;-77
2023/07/16 07:01:12;;;;;;;0.00;0.00;;;;;;;14.18;83.52;99689.28;4998675;28;20112;-76
2023/07/16 07:03:37;;;;;;;0.00;0.00;;;;;;;14.19;82.18;99677.16;5016111;28;20030;-75
2023/07/16 07:06:06;;;;;;;0.00;0.00;;;;;;;14.21;81.73;99674.13;5023468;28;20028;-76
2023/07/16 07:08:31;;;;;;;0.00;0.00;;;;;;;14.25;81.98;99672.34;5019827;28;20099;-76
2023/07/16 07:10:57;;;;;;;0.00;0.00;;;;;;;14.34;81.73;99673.28;5025403;28;20069;-76
2023/07/16 07:13:23;;;;;;;0.00;0.00;;;;;;;14.43;80.85;99696.16;5011360;28;20028;-76
2023/07/16 07:15:49;;;;;;;0.00;0.00;;;;;;;14.53;80.45;99708.03;5023287;28;20036;-75
2023/07/16 07:18:14;;;;;;;0.00;0.00;;;;;;;14.60;79.60;99705.69;5015792;28;20129;-76
2023/07/16 07:20:40;;;;;;;0.00;0.00;;;;;;;14.66;79.01;99730.06;5016478;28;20242;-75
2023/07/16 07:23:06;;;;;;;0.00;0.00;;;;;;;14.64;79.51;99703.97;5026075;28;20468;-77
2023/07/16 07:25:32;;;;;;;0.00;0.00;;;;;;;14.74;77.47;99711.97;5017997;28;20052;-75
2023/07/16 07:27:57;;;;;;;0.00;0.00;;;;;;;14.77;78.05;99711.34;5023468;28;20033;-76
2023/07/16 07:30:23;;;;;;;0.00;0.00;;;;;;;14.77;76.95;99711.34;5043259;28;20584;-75
2023/07/16 07:32:48;;;;;;;0.00;0.00;;;;;;;14.78;76.30;99713.00;5022302;28;20760;-77
2023/07/16 07:35:14;;;;;;;0.00;0.00;;;;;;;14.89;76.08;99724.56;5004808;28;20851;-76
2023/07/16 07:37:39;;;;;;;0.00;0.00;;;;;;;14.92;75.14;99728.63;5014818;28;20026;-76
2023/07/16 07:40:08;;;;;;;0.00;0.00;;;;;;;14.91;75.44;99710.47;5012676;28;20037;-74
2023/07/16 07:42:38;;;;;;;0.00;0.00;;;;;;;15.08;74.21;99746.41;4994117;28;20785;-75
2023/07/16 07:45:05;;;;;;;0.00;0.00;;;;;;;15.11;73.87;99726.53;5030726;28;20033;-75
2023/07/16 07:47:32;;;;;;;0.00;0.00;;;;;;;15.19;73.55;99739.53;5027776;28;20056;-75
2023/07/16 07:49:58;;;;;;;0.00;0.00;;;;;;;15.30;72.28;99733.75;5014970;28;20640;-74
2023/07/16 07:52:23;;;;;;;0.00;0.00;;;;;;;15.40;72.71;99749.22;5022195;28;20109;-74
2023/07/16 07:54:59;;;;;;;;;;;;;;;;;;;;;
2023/07/16 07:57:24;;;;;;;0.00;0.00;;;;;;;15.44;70.21;99734.50;5033835;28;20020;-74
2023/07/16 08:00:00;;;;;;;0.00;0.00;;;;;;;15.63;70.59;99755.50;5018279;28;20108;-74
2023/07/16 08:02:26;;;;;;;0.00;0.00;;;;;;;15.72;71.49;99750.84;5009690;28;20087;-75
2023/07/16 08:04:57;;;;;;;0.00;0.00;;;;;;;15.86;69.54;99762.63;5020962;28;20037;-74
2023/07/16 08:07:23;;;;;;;0.00;0.00;;;;;;;15.94;68.65;99751.94;5014435;28;20029;-76
2023/07/16 08:09:48;;;;;;;0.00;0.00;;;;;;;16.03;68.94;99750.03;5015543;28;20120;-75
2023/07/16 08:12:14;;;;;;;0.00;0.00;;;;;;;16.10;67.71;99761.41;5029326;28;20029;-74
2023/07/16 08:14:41;;;;;;;0.00;0.00;;;;;;;16.26;68.46;99753.50;5010344;28;20017;-73
2023/07/16 08:17:07;;;;;;;0.00;0.00;;;;;;;16.56;67.58;99756.50;5019142;28;20056;-76
2023/07/16 08:19:32;;;;;;;0.00;0.00;;;;;;;16.93;65.56;99766.13;5017839;28;20053;-75
2023/07/16 08:21:57;;;;;;;0.00;0.00;;;;;;;17.26;63.33;99757.34;5004781;28;20028;-74
2023/07/16 08:24:24;;;;;;;0.00;0.00;;;;;;;17.36;62.29;99760.91;5019501;28;20051;-74
2023/07/16 08:26:50;;;;;;;0.00;0.00;;;;;;;17.37;62.21;99757.81;5013909;28;20033;-75
2023/07/16 08:29:15;;;;;;;0.00;0.00;;;;;;;17.35;61.66;99786.94;4996637;28;20055;-75
2023/07/16 08:31:41;;;;;;;0.00;0.00;;;;;;;17.31;60.95;99785.94;5015487;28;20509;-75
2023/07/16 08:34:09;;;;;;;0.00;0.00;;;;;;;17.42;61.00;99781.69;5007491;28;20025;-75
2023/07/16 08:36:34;;;;;;;0.00;0.00;;;;;;;17.58;58.22;99799.41;5032185;28;20110;-77
2023/07/16 08:39:09;;;;;;;0.00;0.00;;;;;;;17.64;58.85;99791.75;5015584;28;20076;-74
2023/07/16 08:41:35;;;;;;;0.00;0.00;;;;;;;17.58;58.17;99769.00;5015866;28;20063;-76
2023/07/16 08:44:01;;;;;;;0.00;0.00;;;;;;;17.56;58.84;99784.28;5018028;28;20171;-74
2023/07/16 08:46:27;;;;;;;0.00;0.00;;;;;;;17.76;58.62;99780.00;5032016;28;20024;-75
2023/07/16 08:48:53;;;;;;;0.00;0.00;;;;;;;17.93;57.91;99766.16;5035062;28;20037;-75
2023/07/16 08:51:21;;;;;;;0.00;0.00;;;;;;;17.99;58.76;99793.59;5016964;28;20088;-75
2023/07/16 08:53:47;;;;;;;0.00;0.00;;;;;;;17.91;59.16;99798.03;5034789;28;20037;-74
2023/07/16 08:56:18;;;;;;;0.00;0.00;;;;;;;17.80;59.31;99775.44;5038151;28;20029;-74
2023/07/16 08:58:47;;;;;;;0.00;0.00;;;;;;;17.93;60.32;99791.03;5019753;28;20120;-74
2023/07/16 09:01:13;;;;;;;0.00;0.00;;;;;;;18.28;59.84;99801.13;5014802;28;20086;-75
2023/07/16 09:03:38;;;;;;;0.00;0.00;;;;;;;18.28;57.51;99790.88;5011870;28;20037;-74
2023/07/16 09:06:04;;;;;;;0.00;0.00;;;;;;;18.20;55.60;99794.50;5011959;28;20035;-74
2023/07/16 09:08:29;;;;;;;0.00;0.00;;;;;;;18.24;53.57;99801.00;5019068;28;20057;-74
2023/07/16 09:11:10;;;;;;;;;;;;;;;;;;;;;
2023/07/16 09:13:40;;;;;;;0.00;0.00;;;;;;;18.10;54.77;99786.56;5037155;28;20394;-78
2023/07/16 09:16:28;;;;;;;0.00;0.00;;;;;;;18.02;55.27;99765.28;5010541;28;20368;-76
2023/07/16 09:19:01;;;;;;;0.00;0.00;;;;;;;18.27;55.15;99783.72;5024579;28;20136;-77
2023/07/16 09:21:36;;;;;;;;;;;;;;;;;;;;;
2023/07/16 09:24:24;;;;;;;0.00;0.00;;;;;;;19.02;55.68;99796.94;5040263;28;20486;-75
2023/07/16 09:26:53;;;;;;;0.00;0.00;;;;;;;19.39;52.68;99799.09;5020784;28;20095;-74
2023/07/16 09:29:21;;;;;;;0.00;0.00;;;;;;;19.52;51.96;99797.97;5039500;28;20056;-75
2023/07/16 09:32:05;;;;;;;0.00;0.00;;;;;;;19.59;50.22;99797.41;5009770;28;20084;-75
2023/07/16 09:34:31;;;;;;;;;;;;;;;19.51;50.37;99803.84;5009247;28;20056;-74
2023/07/16 09:37:04;;;;;;;0.00;0.00;;;;;;;19.34;50.64;99797.31;5003523;28;19949;-75
2023/07/16 09:39:41;;;;;;;0.00;0.00;;;;;;;19.38;50.58;99814.09;5012682;28;20033;-74
2023/07/16 09:42:09;;;;;;;0.00;0.00;;;;;;;19.24;51.60;99811.59;5024348;28;20049;-74
2023/07/16 09:44:35;;;;;;;0.00;0.00;;;;;;;19.25;51.01;99832.63;5019782;28;20025;-74
2023/07/16 09:47:00;;;;;;;0.00;0.00;;;;;;;19.29;51.52;99828.03;5034348;28;20029;-73
2023/07/16 09:49:29;;;;;;;0.00;0.00;;;;;;;19.41;50.84;99818.16;5018492;28;20071;-74
2023/07/16 09:51:56;;;;;;;0.00;0.00;;;;;;;19.75;49.82;99827.25;5029519;28;20112;-73
2023/07/16 09:54:24;;;;;;;0.00;0.00;;;;;;;20.09;49.34;99831.63;5031121;28;20021;-75
2023/07/16 09:56:59;;;;;;;0.00;0.00;;;;;;;20.24;49.30;99835.72;5039712;28;20474;-75
2023/07/16 09:59:28;;;;;;;0.00;0.00;;;;;;;20.56;48.61;99839.53;5044963;28;20029;-75
2023/07/16 10:01:56;;;;;;;0.00;0.00;;;;;;;20.85;47.44;99842.41;5034947;28;20103;-74
2023/07/16 10:04:22;;;;;;;0.00;0.00;;;;;;;21.54;46.33;99853.63;5022107;28;20068;-76
2023/07/16 10:06:59;;;;;;;0.00;0.00;;;;;;;22.86;44.59;99874.09;5020326;28;20443;-75
2023/07/16 10:09:50;;;;;;;0.00;0.00;;;;;;;25.12;39.68;99852.38;5018231;28;20606;-74
2023/07/16 10:12:18;;;;;;;0.00;0.00;;;;;;;27.82;34.30;99854.63;5042481;28;20051;-74
2023/07/16 10:14:46;;;;;;;0.00;0.00;;;;;;;28.17;32.74;99860.72;5037600;28;20025;-77
2023/07/16 10:17:24;;;;;;;0.00;0.00;;;;;;;28.28;32.25;99858.72;5014012;28;20044;-76
2023/07/16 10:20:01;;;;;;;0.00;0.00;;;;;;;29.13;30.69;99855.41;5019079;28;20039;-78
2023/07/16 10:22:41;;;;;;;0.00;0.00;;;;;;;29.00;31.53;99864.31;5032345;28;20029;-77
2023/07/16 10:25:22;;;;;;;0.00;0.00;;;;;;;30.35;28.70;99877.34;5031431;28;20021;-75
2023/07/16 10:27:49;;;;;;;0.00;0.00;;;;;;;30.25;27.53;99858.50;5016550;28;20483;-74
2023/07/16 10:30:15;;;;;;;0.00;0.00;;;;;;;27.90;30.06;99861.03;5030991;28;20025;-77
2023/07/16 10:32:41;;;;;;;0.00;0.00;;;;;;;26.92;31.89;99871.03;5010752;28;20055;-77
2023/07/16 10:35:30;;;;;;;0.00;0.00;;;;;;;29.18;29.52;99885.97;5013066;28;20056;-76
2023/07/16 10:37:55;;;;;;;0.00;0.00;;;;;;;31.07;26.71;99884.41;5014311;28;20060;-75
2023/07/16 10:40:21;;;;;;;0.00;0.00;;;;;;;31.13;26.80;99863.75;5026248;28;20087;-76
2023/07/16 10:42:46;;;;;;;0.00;0.00;;;;;;;31.92;25.62;99861.13;5015848;28;20082;-76
2023/07/16 10:45:22;;;;;;;0.00;0.00;;;;;;;30.76;27.49;99868.13;5006657;28;20026;-77
2023/07/16 10:47:53;;;;;;;0.00;0.00;;;;;;;28.90;29.17;99865.13;5005291;28;20506;-75
2023/07/16 10:50:22;;;;;;;0.00;0.00;;;;;;;29.74;29.48;99872.09;5026205;28;20037;-76
2023/07/16 10:52:53;;;;;;;0.00;0.00;;;;;;;28.91;29.77;99866.72;5022936;28;20116;-76
2023/07/16 10:55:19;;;;;;;0.00;0.00;;;;;;;27.88;30.85;99883.13;5025990;28;20046;-75
2023/07/16 10:57:47;;;;;;;0.00;0.00;;;;;;;26.23;34.32;99875.28;4996211;28;20029;-76
2023/07/16 11:00:14;;;;;;;0.00;0.00;;;;;;;25.30;35.17;99871.41;5028998;28;20017;-75
2023/07/16 11:02:40;;;;;;;0.00;0.00;;;;;;;25.03;35.66;99877.84;5038376;28;20052;-74
2023/07/16 11:05:10;;;;;;;0.00;0.00;;;;;;;25.15;36.48;99862.81;4999375;28;20505;-76
2023/07/16 11:07:35;;;;;;;0.00;0.00;;;;;;;25.55;36.43;99874.53;5048984;28;20171;-75
2023/07/16 11:10:02;;;;;;;0.00;0.00;;;;;;;28.84;32.31;99889.25;5015935;28;20108;-74
2023/07/16 11:12:28;;;;;;;0.00;0.00;;;;;;;31.39;27.25;99855.78;5053149;28;20527;-76
2023/07/16 11:14:55;;;;;;;0.00;0.00;;;;;;;32.82;25.35;99866.16;5003507;28;20061;-75
2023/07/16 11:17:27;;;;;;;0.00;0.00;;;;;;;33.01;25.48;99869.47;5041883;28;20490;-76
2023/07/16 11:19:54;;;;;;;0.00;0.00;;;;;;;33.12;24.28;99878.56;5016310;28;20040;-76
2023/07/16 11:22:24;;;;;;;0.00;0.00;;;;;;;32.62;25.70;99876.63;5035574;28;20036;-77
2023/07/16 11:24:51;;;;;;;0.00;0.00;;;;;;;34.31;23.62;99875.22;5019653;28;20037;-75
2023/07/16 11:27:33;;;;;;;0.00;0.00;;;;;;;36.06;21.48;99891.50;5016932;28;20103;-76
2023/07/16 11:30:00;;;;;;;0.00;0.00;;;;;;;36.90;20.99;99866.78;5047754;28;20025;-75
2023/07/16 11:32:47;;;;;;;0.00;0.00;;;;;;;34.38;22.49;99880.72;5016225;28;20049;-79
2023/07/16 11:35:18;;;;;;;0.00;0.00;;;;;;;33.56;24.17;99892.69;5043249;28;20225;-75
2023/07/16 11:37:47;;;;;;;0.00;0.00;;;;;;;33.13;24.79;99873.69;5020574;28;20037;-77
2023/07/16 11:40:18;;;;;;;0.00;0.00;;;;;;;34.82;22.44;99864.19;5026249;28;20018;-80
2023/07/16 11:42:44;;;;;;;0.00;0.00;;;;;;;34.72;21.87;99873.78;5042272;28;20029;-77